sensor_id;sensor_type;location;lat;lon;timestamp;pressure;altitude;pressure_sealevel;temperature;humidity
49451;BME280;35336;48.400;10.886;2022-09-09T00:00:13;96038.91;;;13.70;87.16
49451;BME280;35336;48.400;10.886;2022-09-09T00:00:32;96027.31;;;13.58;87.59
49451;BME280;35336;48.400;10.886;2022-09-09T00:01:35;96043.44;;;13.70;87.12
49451;BME280;35336;48.400;10.886;2022-09-09T00:02:18;96021.59;;;13.54;87.10
49451;BME280;35336;48.400;10.886;2022-09-09T00:02:33;96014.00;;;13.51;86.98
49451;BME280;35336;48.400;10.886;2022-09-09T00:03:02;96018.00;;;13.60;86.93
49451;BME280;35336;48.400;10.886;2022-09-09T00:03:26;96008.19;;;13.54;87.02
49451;BME280;35336;48.400;10.886;2022-09-09T00:03:47;96007.59;;;13.52;86.73
49451;BME280;35336;48.400;10.886;2022-09-09T00:04:20;96037.66;;;13.73;87.24
49451;BME280;35336;48.400;10.886;2022-09-09T00:04:40;96036.47;;;13.69;87.20
49451;BME280;35336;48.400;10.886;2022-09-09T00:05:08;96036.47;;;13.69;87.20
49451;BME280;35336;48.400;10.886;2022-09-09T00:06:14;96026.25;;;13.59;87.81
49451;BME280;35336;48.400;10.886;2022-09-09T00:06:43;96026.34;;;13.52;87.84
49451;BME280;35336;48.400;10.886;2022-09-09T00:07:04;95974.66;;;13.26;87.90
49451;BME280;35336;48.400;10.886;2022-09-09T00:08:02;96024.94;;;13.49;88.57
49451;BME280;35336;48.400;10.886;2022-09-09T00:08:20;96018.16;;;13.47;88.60
49451;BME280;35336;48.400;10.886;2022-09-09T00:09:13;96013.69;;;13.41;88.51
49451;BME280;35336;48.400;10.886;2022-09-09T00:10:30;96022.03;;;13.51;88.24
49451;BME280;35336;48.400;10.886;2022-09-09T00:10:54;96039.22;;;13.62;88.01
49451;BME280;35336;48.400;10.886;2022-09-09T00:11:17;96010.88;;;13.54;88.02
49451;BME280;35336;48.400;10.886;2022-09-09T00:12:25;96034.66;;;13.62;88.11
49451;BME280;35336;48.400;10.886;2022-09-09T00:13:27;96013.19;;;13.50;87.90
49451;BME280;35336;48.400;10.886;2022-09-09T00:13:52;96008.25;;;13.47;87.52
49451;BME280;35336;48.400;10.886;2022-09-09T00:15:37;96000.88;;;13.43;87.48
49451;BME280;35336;48.400;10.886;2022-09-09T00:16:15;96036.31;;;13.63;87.39
49451;BME280;35336;48.400;10.886;2022-09-09T00:16:36;96026.50;;;13.57;87.29
49451;BME280;35336;48.400;10.886;2022-09-09T00:17:00;96038.59;;;13.60;87.82
49451;BME280;35336;48.400;10.886;2022-09-09T00:17:35;95993.13;;;13.34;87.52
49451;BME280;35336;48.400;10.886;2022-09-09T00:18:03;95973.47;;;13.22;87.35
49451;BME280;35336;48.400;10.886;2022-09-09T00:18:28;96034.09;;;13.60;87.29
49451;BME280;35336;48.400;10.886;2022-09-09T00:19:28;96034.66;;;13.62;87.19
49451;BME280;35336;48.400;10.886;2022-09-09T00:20:16;95975.13;;;13.23;87.53
49451;BME280;35336;48.400;10.886;2022-09-09T00:20:49;95960.00;;;13.10;87.12
49451;BME280;35336;48.400;10.886;2022-09-09T00:21:13;96007.28;;;13.42;87.44
49451;BME280;35336;48.400;10.886;2022-09-09T00:21:34;95996.03;;;13.33;87.32
49451;BME280;35336;48.400;10.886;2022-09-09T00:22:14;96033.72;;;13.57;87.29
49451;BME280;35336;48.400;10.886;2022-09-09T00:22:32;96032.06;;;13.56;87.25
49451;BME280;35336;48.400;10.886;2022-09-09T00:23:00;96025.13;;;13.48;87.31
49451;BME280;35336;48.400;10.886;2022-09-09T00:23:28;96004.44;;;13.37;87.31
49451;BME280;35336;48.400;10.886;2022-09-09T00:23:48;96035.19;;;13.53;87.50
49451;BME280;35336;48.400;10.886;2022-09-09T00:24:36;96035.78;;;13.55;87.44
49451;BME280;35336;48.400;10.886;2022-09-09T00:24:55;96028.41;;;13.50;87.08
49451;BME280;35336;48.400;10.886;2022-09-09T00:25:15;96012.63;;;13.42;87.46
49451;BME280;35336;48.400;10.886;2022-09-09T00:25:39;96030.50;;;13.48;87.22
49451;BME280;35336;48.400;10.886;2022-09-09T00:27:08;96007.88;;;13.44;87.08
49451;BME280;35336;48.400;10.886;2022-09-09T00:27:54;96009.53;;;13.45;86.97
49451;BME280;35336;48.400;10.886;2022-09-09T00:28:21;95982.13;;;13.24;87.24
49451;BME280;35336;48.400;10.886;2022-09-09T00:29:05;96021.00;;;13.52;87.44
49451;BME280;35336;48.400;10.886;2022-09-09T00:29:46;95984.13;;;13.29;87.32
49451;BME280;35336;48.400;10.886;2022-09-09T00:30:34;95963.22;;;13.19;87.03
49451;BME280;35336;48.400;10.886;2022-09-09T00:30:50;96004.19;;;13.45;86.94
49451;BME280;35336;48.400;10.886;2022-09-09T00:31:13;96012.34;;;13.50;86.90
49451;BME280;35336;48.400;10.886;2022-09-09T00:31:31;96023.19;;;13.55;86.91
49451;BME280;35336;48.400;10.886;2022-09-09T00:31:47;96015.41;;;13.54;86.68
49451;BME280;35336;48.400;10.886;2022-09-09T00:32:17;96014.38;;;13.55;86.76
49451;BME280;35336;48.400;10.886;2022-09-09T00:32:34;96014.13;;;13.56;86.59
49451;BME280;35336;48.400;10.886;2022-09-09T00:32:55;96009.81;;;13.55;86.52
49451;BME280;35336;48.400;10.886;2022-09-09T00:33:15;95984.06;;;13.35;86.46
49451;BME280;35336;48.400;10.886;2022-09-09T00:33:30;96016.00;;;13.56;86.37
49451;BME280;35336;48.400;10.886;2022-09-09T00:33:47;96025.81;;;13.62;86.42
49451;BME280;35336;48.400;10.886;2022-09-09T00:34:21;96026.44;;;13.64;86.29
49451;BME280;35336;48.400;10.886;2022-09-09T00:35:24;96010.72;;;13.49;86.54
49451;BME280;35336;48.400;10.886;2022-09-09T00:35:32;96004.78;;;13.47;86.45
49451;BME280;35336;48.400;10.886;2022-09-09T00:35:44;96022.16;;;13.56;86.45
49451;BME280;35336;48.400;10.886;2022-09-09T00:36:02;96035.03;;;13.66;86.52
49451;BME280;35336;48.400;10.886;2022-09-09T00:36:21;96028.72;;;13.60;86.39
49451;BME280;35336;48.400;10.886;2022-09-09T00:36:38;96001.25;;;13.46;86.25
49451;BME280;35336;48.400;10.886;2022-09-09T00:36:55;95993.91;;;13.42;86.34
49451;BME280;35336;48.400;10.886;2022-09-09T00:37:11;96011.91;;;13.53;86.24
49451;BME280;35336;48.400;10.886;2022-09-09T00:37:28;96022.34;;;13.61;86.21
49451;BME280;35336;48.400;10.886;2022-09-09T00:37:48;96020.91;;;13.59;86.21
49451;BME280;35336;48.400;10.886;2022-09-09T00:38:25;96033.78;;;13.69;85.75
49451;BME280;35336;48.400;10.886;2022-09-09T00:38:52;96009.25;;;13.53;85.64
49451;BME280;35336;48.400;10.886;2022-09-09T00:39:42;95993.91;;;13.42;85.69
49451;BME280;35336;48.400;10.886;2022-09-09T00:40:02;96002.66;;;13.49;86.08
49451;BME280;35336;48.400;10.886;2022-09-09T00:40:34;96005.06;;;13.57;85.87
49451;BME280;35336;48.400;10.886;2022-09-09T00:41:00;96028.44;;;13.69;86.05
49451;BME280;35336;48.400;10.886;2022-09-09T00:41:45;96028.56;;;13.74;85.61
49451;BME280;35336;48.400;10.886;2022-09-09T00:42:13;96029.19;;;13.76;85.76
49451;BME280;35336;48.400;10.886;2022-09-09T00:42:38;96036.16;;;13.77;86.26
49451;BME280;35336;48.400;10.886;2022-09-09T00:43:32;96035.09;;;13.78;85.76
49451;BME280;35336;48.400;10.886;2022-09-09T00:44:32;96027.53;;;13.75;86.08
49451;BME280;35336;48.400;10.886;2022-09-09T00:45:25;96030.13;;;13.81;85.57
49451;BME280;35336;48.400;10.886;2022-09-09T00:47:39;96029.44;;;13.86;85.46
49451;BME280;35336;48.400;10.886;2022-09-09T00:47:55;96012.88;;;13.77;85.49
49451;BME280;35336;48.400;10.886;2022-09-09T00:48:12;96025.59;;;13.82;85.43
49451;BME280;35336;48.400;10.886;2022-09-09T00:49:24;96027.13;;;13.90;85.03
49451;BME280;35336;48.400;10.886;2022-09-09T00:50:39;96025.28;;;13.90;84.89
49451;BME280;35336;48.400;10.886;2022-09-09T00:51:05;95986.63;;;13.68;84.71
49451;BME280;35336;48.400;10.886;2022-09-09T00:52:36;96005.06;;;13.76;84.54
49451;BME280;35336;48.400;10.886;2022-09-09T00:53:58;96020.31;;;13.94;84.62
49451;BME280;35336;48.400;10.886;2022-09-09T00:54:27;96028.53;;;13.92;84.38
49451;BME280;35336;48.400;10.886;2022-09-09T00:56:08;96023.41;;;13.91;84.43
49451;BME280;35336;48.400;10.886;2022-09-09T00:56:35;96026.56;;;13.88;84.46
49451;BME280;35336;48.400;10.886;2022-09-09T00:57:31;96004.47;;;13.74;84.81
49451;BME280;35336;48.400;10.886;2022-09-09T00:57:51;96028.19;;;13.89;84.62
49451;BME280;35336;48.400;10.886;2022-09-09T00:58:08;96022.44;;;13.85;84.53
49451;BME280;35336;48.400;10.886;2022-09-09T00:58:24;95986.69;;;13.61;84.67
49451;BME280;35336;48.400;10.886;2022-09-09T00:58:52;95996.88;;;13.71;84.13
49451;BME280;35336;48.400;10.886;2022-09-09T00:59:27;96019.41;;;13.81;84.38
49451;BME280;35336;48.400;10.886;2022-09-09T00:59:50;96019.03;;;13.78;84.58
49451;BME280;35336;48.400;10.886;2022-09-09T01:00:52;96026.78;;;13.86;84.77
49451;BME280;35336;48.400;10.886;2022-09-09T01:01:11;96037.72;;;13.85;84.72
49451;BME280;35336;48.400;10.886;2022-09-09T01:01:28;96020.44;;;13.80;84.76
49451;BME280;35336;48.400;10.886;2022-09-09T01:01:43;96010.06;;;13.72;84.71
49451;BME280;35336;48.400;10.886;2022-09-09T01:01:59;96008.41;;;13.71;84.69
49451;BME280;35336;48.400;10.886;2022-09-09T01:02:28;96012.94;;;13.71;84.37
49451;BME280;35336;48.400;10.886;2022-09-09T01:04:09;96005.38;;;13.68;84.71
49451;BME280;35336;48.400;10.886;2022-09-09T01:04:33;96015.97;;;13.74;84.60
49451;BME280;35336;48.400;10.886;2022-09-09T01:04:51;96025.13;;;13.85;84.26
49451;BME280;35336;48.400;10.886;2022-09-09T01:05:15;96038.31;;;13.87;84.30
49451;BME280;35336;48.400;10.886;2022-09-09T01:06:30;96027.00;;;13.85;84.08
49451;BME280;35336;48.400;10.886;2022-09-09T01:06:54;95954.75;;;13.41;83.97
49451;BME280;35336;48.400;10.886;2022-09-09T01:07:20;95982.97;;;13.62;84.11
49451;BME280;35336;48.400;10.886;2022-09-09T01:07:36;96031.69;;;13.89;84.11
49451;BME280;35336;48.400;10.886;2022-09-09T01:07:51;95988.56;;;13.60;83.79
49451;BME280;35336;48.400;10.886;2022-09-09T01:08:12;95994.19;;;13.71;83.76
49451;BME280;35336;48.400;10.886;2022-09-09T01:09:26;96008.31;;;13.78;83.93
49451;BME280;35336;48.400;10.886;2022-09-09T01:10:24;96006.69;;;13.77;83.99
49451;BME280;35336;48.400;10.886;2022-09-09T01:10:52;96035.78;;;13.92;83.97
49451;BME280;35336;48.400;10.886;2022-09-09T01:11:20;96027.97;;;13.90;84.09
49451;BME280;35336;48.400;10.886;2022-09-09T01:12:02;96033.34;;;13.90;83.98
49451;BME280;35336;48.400;10.886;2022-09-09T01:12:51;95996.06;;;13.70;84.58
49451;BME280;35336;48.400;10.886;2022-09-09T01:13:16;96021.03;;;13.82;84.84
49451;BME280;35336;48.400;10.886;2022-09-09T01:13:35;95995.44;;;13.68;84.97
49451;BME280;35336;48.400;10.886;2022-09-09T01:14:24;96028.19;;;13.89;85.11
49451;BME280;35336;48.400;10.886;2022-09-09T01:14:48;96023.50;;;13.84;85.45
49451;BME280;35336;48.400;10.886;2022-09-09T01:15:12;96006.16;;;13.68;85.74
49451;BME280;35336;48.400;10.886;2022-09-09T01:15:31;96027.00;;;13.85;85.70
49451;BME280;35336;48.400;10.886;2022-09-09T01:15:48;96008.56;;;13.76;86.05
49451;BME280;35336;48.400;10.886;2022-09-09T01:16:07;96005.38;;;13.68;86.44
49451;BME280;35336;48.400;10.886;2022-09-09T01:16:25;96025.59;;;13.82;86.34
49451;BME280;35336;48.400;10.886;2022-09-09T01:16:42;95990.03;;;13.56;86.12
49451;BME280;35336;48.400;10.886;2022-09-09T01:17:05;96034.69;;;13.81;86.65
49451;BME280;35336;48.400;10.886;2022-09-09T01:17:30;96012.38;;;13.69;86.73
49451;BME280;35336;48.400;10.886;2022-09-09T01:18:12;96029.75;;;13.78;87.13
49451;BME280;35336;48.400;10.886;2022-09-09T01:18:34;95992.69;;;13.56;87.70
49451;BME280;35336;48.400;10.886;2022-09-09T01:18:53;96024.50;;;13.71;87.57
49451;BME280;35336;48.400;10.886;2022-09-09T01:19:18;95985.44;;;13.45;87.89
49451;BME280;35336;48.400;10.886;2022-09-09T01:20:08;95977.81;;;13.42;87.94
49451;BME280;35336;48.400;10.886;2022-09-09T01:20:31;96023.66;;;13.71;87.87
49451;BME280;35336;48.400;10.886;2022-09-09T01:21:07;96031.69;;;13.71;88.13
49451;BME280;35336;48.400;10.886;2022-09-09T01:21:54;95976.63;;;13.38;87.93
49451;BME280;35336;48.400;10.886;2022-09-09T01:22:29;96025.28;;;13.72;88.29
49451;BME280;35336;48.400;10.886;2022-09-09T01:26:56;96012.81;;;13.65;88.07
49451;BME280;35336;48.400;10.886;2022-09-09T01:27:14;96013.03;;;13.64;88.01
49451;BME280;35336;48.400;10.886;2022-09-09T01:27:33;96010.34;;;13.64;88.06
49451;BME280;35336;48.400;10.886;2022-09-09T01:27:51;96005.81;;;13.64;88.10
49451;BME280;35336;48.400;10.886;2022-09-09T01:28:12;95997.84;;;13.58;87.95
49451;BME280;35336;48.400;10.886;2022-09-09T01:28:31;96011.63;;;13.61;87.93
49451;BME280;35336;48.400;10.886;2022-09-09T01:28:49;95989.75;;;13.46;88.16
49451;BME280;35336;48.400;10.886;2022-09-09T01:29:16;96001.34;;;13.58;88.24
49451;BME280;35336;48.400;10.886;2022-09-09T01:29:32;96015.47;;;13.65;87.89
49451;BME280;35336;48.400;10.886;2022-09-09T01:29:48;95986.59;;;13.49;87.93
49451;BME280;35336;48.400;10.886;2022-09-09T01:30:11;95984.03;;;13.42;88.18
49451;BME280;35336;48.400;10.886;2022-09-09T01:30:28;96011.81;;;13.60;88.22
49451;BME280;35336;48.400;10.886;2022-09-09T01:30:43;96016.97;;;13.61;88.50
49451;BME280;35336;48.400;10.886;2022-09-09T01:30:59;96003.28;;;13.51;88.27
49451;BME280;35336;48.400;10.886;2022-09-09T01:31:23;96006.56;;;13.53;88.36
49451;BME280;35336;48.400;10.886;2022-09-09T01:31:59;95998.97;;;13.50;88.67
49451;BME280;35336;48.400;10.886;2022-09-09T01:32:46;96013.94;;;13.58;88.82
49451;BME280;35336;48.400;10.886;2022-09-09T01:33:02;96008.19;;;13.54;88.74
49451;BME280;35336;48.400;10.886;2022-09-09T01:33:18;95987.50;;;13.43;88.96
49451;BME280;35336;48.400;10.886;2022-09-09T01:33:34;95991.81;;;13.44;89.14
49451;BME280;35336;48.400;10.886;2022-09-09T01:33:49;96009.91;;;13.48;89.07
49451;BME280;35336;48.400;10.886;2022-09-09T01:34:12;96003.50;;;13.49;89.02
49451;BME280;35336;48.400;10.886;2022-09-09T01:34:31;95980.75;;;13.33;89.31
49451;BME280;35336;48.400;10.886;2022-09-09T01:34:50;95996.81;;;13.40;89.14
49451;BME280;35336;48.400;10.886;2022-09-09T01:35:43;96017.03;;;13.55;89.08
49451;BME280;35336;48.400;10.886;2022-09-09T01:36:20;95978.31;;;13.32;89.32
49451;BME280;35336;48.400;10.886;2022-09-09T01:36:58;96009.06;;;13.48;89.04
49451;BME280;35336;48.400;10.886;2022-09-09T01:37:16;96005.16;;;13.50;89.03
49451;BME280;35336;48.400;10.886;2022-09-09T01:37:31;96005.81;;;13.46;89.04
49451;BME280;35336;48.400;10.886;2022-09-09T01:37:47;96007.00;;;13.50;89.26
49451;BME280;35336;48.400;10.886;2022-09-09T01:38:03;95962.16;;;13.20;89.14
49451;BME280;35336;48.400;10.886;2022-09-09T01:38:18;96014.00;;;13.51;89.31
49451;BME280;35336;48.400;10.886;2022-09-09T01:38:34;96016.44;;;13.53;89.29
49451;BME280;35336;48.400;10.886;2022-09-09T01:38:51;95975.50;;;13.27;88.96
49451;BME280;35336;48.400;10.886;2022-09-09T01:39:06;95977.50;;;13.31;89.08
49451;BME280;35336;48.400;10.886;2022-09-09T01:39:22;96003.13;;;13.46;88.96
49451;BME280;35336;48.400;10.886;2022-09-09T01:39:40;95996.41;;;13.37;88.86
49451;BME280;35336;48.400;10.886;2022-09-09T01:39:56;96004.78;;;13.47;88.75
49451;BME280;35336;48.400;10.886;2022-09-09T01:40:12;96000.88;;;13.43;88.97
49451;BME280;35336;48.400;10.886;2022-09-09T01:40:27;96007.00;;;13.50;88.81
49451;BME280;35336;48.400;10.886;2022-09-09T01:40:43;95988.78;;;13.33;88.76
49451;BME280;35336;48.400;10.886;2022-09-09T01:40:59;96006.38;;;13.48;88.82
49451;BME280;35336;48.400;10.886;2022-09-09T01:41:14;95986.34;;;13.32;88.64
49451;BME280;35336;48.400;10.886;2022-09-09T01:41:30;96016.72;;;13.44;88.82
49451;BME280;35336;48.400;10.886;2022-09-09T01:41:45;95993.34;;;13.33;88.62
49451;BME280;35336;48.400;10.886;2022-09-09T01:42:02;96010.56;;;13.44;88.84
49451;BME280;35336;48.400;10.886;2022-09-09T01:42:18;95992.75;;;13.31;88.85
49451;BME280;35336;48.400;10.886;2022-09-09T01:42:34;96004.22;;;13.38;88.99
49451;BME280;35336;48.400;10.886;2022-09-09T01:42:50;95998.47;;;13.34;89.29
49451;BME280;35336;48.400;10.886;2022-09-09T01:43:06;96005.25;;;13.37;88.94
49451;BME280;35336;48.400;10.886;2022-09-09T01:43:23;95991.34;;;13.28;89.11
49451;BME280;35336;48.400;10.886;2022-09-09T01:43:39;95986.88;;;13.22;89.11
49451;BME280;35336;48.400;10.886;2022-09-09T01:43:55;96015.53;;;13.40;89.04
49451;BME280;35336;48.400;10.886;2022-09-09T01:44:11;96004.28;;;13.31;89.42
49451;BME280;35336;48.400;10.886;2022-09-09T01:44:27;96011.22;;;13.39;89.18
49451;BME280;35336;48.400;10.886;2022-09-09T01:44:43;96005.69;;;13.34;89.08
49451;BME280;35336;48.400;10.886;2022-09-09T01:44:58;96010.44;;;13.39;89.11
49451;BME280;35336;48.400;10.886;2022-09-09T01:45:14;96007.53;;;13.33;89.08
49451;BME280;35336;48.400;10.886;2022-09-09T01:45:29;95977.06;;;13.16;89.17
49451;BME280;35336;48.400;10.886;2022-09-09T01:45:46;96005.56;;;13.29;89.61
49451;BME280;35336;48.400;10.886;2022-09-09T01:46:04;95989.97;;;13.19;89.56
49451;BME280;35336;48.400;10.886;2022-09-09T01:46:21;95996.38;;;13.18;89.40
49451;BME280;35336;48.400;10.886;2022-09-09T01:46:37;95941.31;;;12.85;89.41
49451;BME280;35336;48.400;10.886;2022-09-09T01:46:52;96009.19;;;13.34;89.47
49451;BME280;35336;48.400;10.886;2022-09-09T01:47:08;96019.88;;;13.34;89.71
49451;BME280;35336;48.400;10.886;2022-09-09T01:47:24;95993.88;;;13.23;89.45
49451;BME280;35336;48.400;10.886;2022-09-09T01:47:41;95982.41;;;13.16;89.88
49451;BME280;35336;48.400;10.886;2022-09-09T01:47:57;96022.38;;;13.36;89.65
49451;BME280;35336;48.400;10.886;2022-09-09T01:48:13;95992.88;;;13.17;89.54
49451;BME280;35336;48.400;10.886;2022-09-09T01:48:29;96021.53;;;13.35;89.60
49451;BME280;35336;48.400;10.886;2022-09-09T01:48:45;95963.81;;;13.02;89.61
49451;BME280;35336;48.400;10.886;2022-09-09T01:49:02;96019.31;;;13.32;89.70
49451;BME280;35336;48.400;10.886;2022-09-09T01:49:19;96011.34;;;13.26;89.49
49451;BME280;35336;48.400;10.886;2022-09-09T01:49:34;96008.88;;;13.24;89.71
49451;BME280;35336;48.400;10.886;2022-09-09T01:49:50;96020.34;;;13.31;89.69
49451;BME280;35336;48.400;10.886;2022-09-09T01:50:07;96011.09;;;13.27;89.81
49451;BME280;35336;48.400;10.886;2022-09-09T01:50:23;96001.16;;;13.16;89.93
49451;BME280;35336;48.400;10.886;2022-09-09T01:50:39;96016.03;;;13.30;90.10
49451;BME280;35336;48.400;10.886;2022-09-09T01:50:54;96012.38;;;13.25;90.03
49451;BME280;35336;48.400;10.886;2022-09-09T01:51:10;95958.13;;;12.92;89.99
49451;BME280;35336;48.400;10.886;2022-09-09T01:51:25;95994.16;;;13.15;90.04
49451;BME280;35336;48.400;10.886;2022-09-09T01:51:42;96010.97;;;13.22;90.03
49451;BME280;35336;48.400;10.886;2022-09-09T01:51:58;96014.44;;;13.23;90.19
49451;BME280;35336;48.400;10.886;2022-09-09T01:52:14;96014.25;;;13.24;90.36
49451;BME280;35336;48.400;10.886;2022-09-09T01:52:31;96005.59;;;13.22;90.01
49451;BME280;35336;48.400;10.886;2022-09-09T01:52:52;96010.31;;;13.27;90.19
49451;BME280;35336;48.400;10.886;2022-09-09T01:53:10;96014.81;;;13.26;90.33
49451;BME280;35336;48.400;10.886;2022-09-09T01:53:26;96014.63;;;13.28;90.09
49451;BME280;35336;48.400;10.886;2022-09-09T01:53:43;96005.56;;;13.29;90.26
49451;BME280;35336;48.400;10.886;2022-09-09T01:53:58;95953.97;;;12.96;90.00
49451;BME280;35336;48.400;10.886;2022-09-09T01:54:14;96016.03;;;13.30;89.86
49451;BME280;35336;48.400;10.886;2022-09-09T01:54:31;95998.75;;;13.26;90.08
49451;BME280;35336;48.400;10.886;2022-09-09T01:54:47;96008.28;;;13.22;90.10
49451;BME280;35336;48.400;10.886;2022-09-09T01:55:04;95983.50;;;13.08;89.98
49451;BME280;35336;48.400;10.886;2022-09-09T01:55:30;96002.31;;;13.20;89.97
49451;BME280;35336;48.400;10.886;2022-09-09T01:56:07;95936.03;;;12.78;90.04
49451;BME280;35336;48.400;10.886;2022-09-09T01:57:15;96017.06;;;13.29;90.04
49451;BME280;35336;48.400;10.886;2022-09-09T01:57:39;95982.59;;;13.14;90.30
49451;BME280;35336;48.400;10.886;2022-09-09T01:59:10;96012.59;;;13.23;89.94
49451;BME280;35336;48.400;10.886;2022-09-09T02:00:15;95983.72;;;13.07;90.06
49451;BME280;35336;48.400;10.886;2022-09-09T02:00:33;96011.56;;;13.24;90.15
49451;BME280;35336;48.400;10.886;2022-09-09T02:02:19;95998.63;;;13.21;89.67
49451;BME280;35336;48.400;10.886;2022-09-09T02:03:09;95980.16;;;13.13;89.50
49451;BME280;35336;48.400;10.886;2022-09-09T02:03:32;95985.97;;;13.10;89.92
49451;BME280;35336;48.400;10.886;2022-09-09T02:03:52;95973.06;;;13.00;89.77
49451;BME280;35336;48.400;10.886;2022-09-09T02:04:23;96005.38;;;13.24;89.77
49451;BME280;35336;48.400;10.886;2022-09-09T02:04:48;95995.19;;;13.14;89.57
49451;BME280;35336;48.400;10.886;2022-09-09T02:05:17;95995.78;;;13.16;89.61
49451;BME280;35336;48.400;10.886;2022-09-09T02:05:39;96009.25;;;13.28;89.67
49451;BME280;35336;48.400;10.886;2022-09-09T02:06:44;95999.81;;;13.25;89.24
49451;BME280;35336;48.400;10.886;2022-09-09T02:07:00;95998.63;;;13.21;89.60
49451;BME280;35336;48.400;10.886;2022-09-09T02:07:48;95994.91;;;13.22;89.49
49451;BME280;35336;48.400;10.886;2022-09-09T02:08:09;95992.88;;;13.17;89.44
49451;BME280;35336;48.400;10.886;2022-09-09T02:08:41;95976.97;;;13.04;89.26
49451;BME280;35336;48.400;10.886;2022-09-09T02:09:00;96001.16;;;13.16;89.66
49451;BME280;35336;48.400;10.886;2022-09-09T02:09:19;95942.59;;;12.82;89.72
49451;BME280;35336;48.400;10.886;2022-09-09T02:09:37;95997.88;;;13.14;89.86
49451;BME280;35336;48.400;10.886;2022-09-09T02:10:08;95980.28;;;12.99;90.10
49451;BME280;35336;48.400;10.886;2022-09-09T02:11:01;96009.97;;;13.16;90.33
49451;BME280;35336;48.400;10.886;2022-09-09T02:11:19;95991.75;;;13.07;90.47
49451;BME280;35336;48.400;10.886;2022-09-09T02:11:36;96002.84;;;13.10;90.32
49451;BME280;35336;48.400;10.886;2022-09-09T02:12:00;95998.28;;;13.11;90.55
49451;BME280;35336;48.400;10.886;2022-09-09T02:12:19;95996.69;;;13.10;90.63
49451;BME280;35336;48.400;10.886;2022-09-09T02:12:42;95995.78;;;13.16;90.22
49451;BME280;35336;48.400;10.886;2022-09-09T02:13:06;95983.13;;;13.05;90.52
49451;BME280;35336;48.400;10.886;2022-09-09T02:13:22;95999.72;;;13.13;90.20
49451;BME280;35336;48.400;10.886;2022-09-09T02:13:38;95963.72;;;12.91;90.30
49451;BME280;35336;48.400;10.886;2022-09-09T02:14:01;95960.19;;;12.90;90.20
49451;BME280;35336;48.400;10.886;2022-09-09T02:14:27;95997.88;;;13.14;90.15
49451;BME280;35336;48.400;10.886;2022-09-09T02:14:52;95980.16;;;13.13;90.09
49451;BME280;35336;48.400;10.886;2022-09-09T02:15:21;95977.19;;;13.02;90.42
49451;BME280;35336;48.400;10.886;2022-09-09T02:15:56;95986.63;;;13.05;90.05
49451;BME280;35336;48.400;10.886;2022-09-09T02:16:15;96001.94;;;13.16;89.95
49451;BME280;35336;48.400;10.886;2022-09-09T02:16:40;95994.56;;;13.12;90.04
49451;BME280;35336;48.400;10.886;2022-09-09T02:17:02;96001.16;;;13.16;90.22
49451;BME280;35336;48.400;10.886;2022-09-09T02:17:25;95989.06;;;13.07;89.95
49451;BME280;35336;48.400;10.886;2022-09-09T02:17:42;95992.56;;;13.07;89.45
49451;BME280;35336;48.400;10.886;2022-09-09T02:17:58;95967.81;;;12.93;89.56
49451;BME280;35336;48.400;10.886;2022-09-09T02:18:22;95969.44;;;12.94;89.23
49451;BME280;35336;48.400;10.886;2022-09-09T02:18:47;95939.59;;;12.72;89.74
49451;BME280;35336;48.400;10.886;2022-09-09T02:19:35;96002.47;;;13.07;90.35
49451;BME280;35336;48.400;10.886;2022-09-09T02:19:56;95969.25;;;12.89;90.31
49451;BME280;35336;48.400;10.886;2022-09-09T02:20:14;95979.50;;;12.99;90.39
49451;BME280;35336;48.400;10.886;2022-09-09T02:20:30;95990.56;;;13.02;90.35
49451;BME280;35336;48.400;10.886;2022-09-09T02:20:47;95989.97;;;13.00;90.66
49451;BME280;35336;48.400;10.886;2022-09-09T02:21:03;95981.56;;;12.97;90.69
49451;BME280;35336;48.400;10.886;2022-09-09T02:21:19;95985.66;;;12.99;90.70
49451;BME280;35336;48.400;10.886;2022-09-09T02:21:35;95953.72;;;12.79;90.86
49451;BME280;35336;48.400;10.886;2022-09-09T02:21:54;95972.16;;;12.87;90.28
49451;BME280;35336;48.400;10.886;2022-09-09T02:22:10;95978.34;;;12.88;90.36
49451;BME280;35336;48.400;10.886;2022-09-09T02:22:27;95970.91;;;12.90;90.01
49451;BME280;35336;48.400;10.886;2022-09-09T02:22:45;95973.00;;;12.88;90.34
49451;BME280;35336;48.400;10.886;2022-09-09T02:23:05;95968.06;;;12.85;90.12
49451;BME280;35336;48.400;10.886;2022-09-09T02:23:23;95982.81;;;12.94;90.43
49451;BME280;35336;48.400;10.886;2022-09-09T02:23:42;95972.53;;;12.91;90.42
49451;BME280;35336;48.400;10.886;2022-09-09T02:24:01;95965.41;;;12.85;90.69
49451;BME280;35336;48.400;10.886;2022-09-09T02:24:19;95985.66;;;12.99;90.75
49451;BME280;35336;48.400;10.886;2022-09-09T02:24:37;95950.47;;;12.77;90.68
49451;BME280;35336;48.400;10.886;2022-09-09T02:24:56;95960.94;;;12.79;90.42
49451;BME280;35336;48.400;10.886;2022-09-09T02:25:15;95970.09;;;12.90;90.79
49451;BME280;35336;48.400;10.886;2022-09-09T02:25:33;95961.31;;;12.82;90.69
49451;BME280;35336;48.400;10.886;2022-09-09T02:25:51;95977.66;;;12.93;90.53
49451;BME280;35336;48.400;10.886;2022-09-09T02:26:10;95961.09;;;12.84;90.68
49451;BME280;35336;48.400;10.886;2022-09-09T02:26:28;95954.75;;;12.78;90.57
49451;BME280;35336;48.400;10.886;2022-09-09T02:26:46;95971.13;;;12.89;90.62
49451;BME280;35336;48.400;10.886;2022-09-09T02:27:04;95981.59;;;12.90;90.70
49451;BME280;35336;48.400;10.886;2022-09-09T02:27:22;95982.81;;;12.94;90.91
49451;BME280;35336;48.400;10.886;2022-09-09T02:27:40;95948.44;;;12.73;90.71
49451;BME280;35336;48.400;10.886;2022-09-09T02:27:57;95977.09;;;12.91;90.98
49451;BME280;35336;48.400;10.886;2022-09-09T02:28:16;95976.09;;;12.85;90.91